createdAt,value
2023-03-29T00:00:41.696Z,65
2023-03-29T00:04:07.169Z,64
2023-03-29T00:07:32.517Z,65
2023-03-29T00:10:57.956Z,64
2023-03-29T00:14:23.449Z,65
2023-03-29T00:17:48.946Z,65
2023-03-29T00:21:15.090Z,65
2023-03-29T00:24:40.542Z,66
2023-03-29T00:28:05.966Z,66
2023-03-29T00:31:31.424Z,66
2023-03-29T00:34:56.859Z,66
2023-03-29T00:38:22.307Z,67
2023-03-29T00:41:47.739Z,67
2023-03-29T00:45:13.146Z,66
2023-03-29T00:48:38.607Z,66
2023-03-29T00:52:03.989Z,67
2023-03-29T00:55:29.361Z,67
2023-03-29T00:58:54.765Z,69
2023-03-29T01:02:20.175Z,70
2023-03-29T01:05:45.658Z,72
2023-03-29T01:09:11.084Z,76
2023-03-29T01:12:36.529Z,78
2023-03-29T01:16:02.003Z,79
2023-03-29T01:19:27.430Z,80
2023-03-29T01:22:52.898Z,80
2023-03-29T01:26:18.317Z,80
2023-03-29T01:29:43.771Z,79
2023-03-29T01:33:09.186Z,80
2023-03-29T01:36:34.643Z,80
2023-03-29T01:40:00.227Z,81
2023-03-29T01:43:25.552Z,82
2023-03-29T01:46:51.021Z,82
2023-03-29T01:50:16.408Z,83
2023-03-29T01:53:41.888Z,83
2023-03-29T01:57:07.434Z,84
2023-03-29T02:00:32.723Z,84
2023-03-29T02:03:58.155Z,84
2023-03-29T02:07:23.616Z,85
2023-03-29T02:10:49.015Z,86
2023-03-29T02:14:14.456Z,86
2023-03-29T02:17:39.974Z,86
2023-03-29T02:21:05.345Z,87
2023-03-29T02:24:30.750Z,87
2023-03-29T02:27:56.221Z,88
2023-03-29T02:31:21.690Z,88
2023-03-29T02:34:47.070Z,87
2023-03-29T02:38:12.472Z,87
2023-03-29T02:41:37.905Z,87
2023-03-29T02:45:03.310Z,87
2023-03-29T02:48:28.745Z,88
2023-03-29T02:51:54.157Z,88
2023-03-29T02:55:19.532Z,88
2023-03-29T02:58:44.976Z,88
2023-03-29T03:02:10.394Z,88
2023-03-29T03:05:35.751Z,88
2023-03-29T03:09:01.162Z,88
2023-03-29T03:12:26.622Z,88
2023-03-29T03:15:52.120Z,88
2023-03-29T03:19:17.513Z,88
2023-03-29T03:22:42.970Z,88
2023-03-29T03:26:08.358Z,88
2023-03-29T03:29:33.791Z,88
2023-03-29T03:32:59.308Z,88
2023-03-29T03:36:24.663Z,87
2023-03-29T03:39:51.679Z,88
2023-03-29T03:43:17.090Z,89
2023-03-29T03:46:42.528Z,89
2023-03-29T03:50:07.915Z,88
2023-03-29T03:53:33.382Z,89
2023-03-29T03:56:58.930Z,88
2023-03-29T04:00:24.290Z,88
2023-03-29T04:03:49.757Z,88
2023-03-29T04:07:15.122Z,88
2023-03-29T04:10:40.456Z,88
2023-03-29T04:14:05.944Z,88
2023-03-29T04:17:31.305Z,89
2023-03-29T04:20:56.626Z,89
2023-03-29T04:24:22.018Z,89
2023-03-29T04:27:47.456Z,89
2023-03-29T04:31:13.354Z,89
2023-03-29T04:34:38.856Z,90
2023-03-29T04:38:04.254Z,89
2023-03-29T04:41:29.574Z,89
2023-03-29T04:44:54.944Z,89
2023-03-29T04:48:20.275Z,89
2023-03-29T04:51:45.548Z,89
2023-03-29T04:55:10.831Z,88
2023-03-29T04:58:36.118Z,88
2023-03-29T05:02:01.393Z,89
2023-03-29T05:05:26.777Z,89
2023-03-29T05:08:52.078Z,88
2023-03-29T05:12:17.468Z,87
2023-03-29T05:15:42.854Z,88
2023-03-29T05:19:08.183Z,88
2023-03-29T05:22:33.433Z,88
2023-03-29T05:25:58.589Z,88
2023-03-29T05:29:23.836Z,88
2023-03-29T05:32:49.052Z,88
2023-03-29T05:36:14.227Z,87
2023-03-29T05:39:39.383Z,87
2023-03-29T05:43:04.588Z,87
2023-03-29T05:46:29.782Z,87
2023-03-29T05:49:54.959Z,86
2023-03-29T05:53:20.144Z,86
2023-03-29T05:56:45.383Z,86
2023-03-29T06:00:10.511Z,87
2023-03-29T06:03:35.778Z,87
2023-03-29T06:07:00.909Z,88
2023-03-29T06:10:26.059Z,87
2023-03-29T06:13:51.279Z,87
2023-03-29T06:17:16.416Z,86
2023-03-29T06:20:41.587Z,86
2023-03-29T06:24:06.768Z,87
2023-03-29T06:27:31.952Z,87
2023-03-29T06:30:57.201Z,86
2023-03-29T06:34:22.318Z,87
2023-03-29T06:37:47.466Z,86
2023-03-29T06:41:12.636Z,86
2023-03-29T06:44:37.813Z,86
2023-03-29T06:48:03.002Z,85
2023-03-29T06:51:28.137Z,85
2023-03-29T06:54:53.292Z,85
2023-03-29T06:58:18.453Z,84
2023-03-29T07:01:43.743Z,83
2023-03-29T07:05:08.797Z,84
2023-03-29T07:08:33.950Z,85
2023-03-29T07:11:59.119Z,86
2023-03-29T07:15:24.303Z,86
2023-03-29T07:18:49.497Z,86
2023-03-29T07:22:14.685Z,86
2023-03-29T07:25:39.799Z,87
2023-03-29T07:29:05.011Z,86
2023-03-29T07:32:30.232Z,86
2023-03-29T07:35:55.404Z,85
2023-03-29T07:39:20.628Z,85
2023-03-29T07:42:45.705Z,85
2023-03-29T07:46:10.893Z,86
2023-03-29T07:49:36.023Z,86
2023-03-29T07:53:01.201Z,86
2023-03-29T07:56:26.408Z,85
2023-03-29T07:59:51.517Z,85
2023-03-29T08:03:16.749Z,85
2023-03-29T08:06:41.840Z,85
2023-03-29T08:10:07.004Z,85
2023-03-29T08:13:32.230Z,85
2023-03-29T08:16:57.367Z,85
2023-03-29T08:20:22.545Z,85
2023-03-29T08:23:47.696Z,85
2023-03-29T08:27:12.904Z,85
2023-03-29T08:30:38.091Z,86
2023-03-29T08:34:03.262Z,85
2023-03-29T08:37:28.392Z,85
2023-03-29T08:40:53.524Z,84
2023-03-29T08:44:18.696Z,83
2023-03-29T08:47:43.908Z,83
2023-03-29T08:51:10.027Z,84
2023-03-29T08:54:34.179Z,84
2023-03-29T08:58:00.093Z,83
2023-03-29T09:01:25.267Z,83
2023-03-29T09:04:50.422Z,83
2023-03-29T09:08:15.582Z,82
2023-03-29T09:11:40.733Z,83
2023-03-29T09:15:05.888Z,84
2023-03-29T09:18:31.052Z,82
2023-03-29T09:21:58.827Z,82
2023-03-29T09:25:23.976Z,81
2023-03-29T09:28:49.120Z,80
2023-03-29T09:32:14.285Z,81
2023-03-29T09:35:39.457Z,79
2023-03-29T09:39:04.651Z,80
2023-03-29T09:42:29.779Z,79
2023-03-29T09:45:54.963Z,77
2023-03-29T09:49:20.075Z,77
2023-03-29T09:52:45.275Z,76
2023-03-29T09:56:10.464Z,75
2023-03-29T09:59:35.632Z,77
2023-03-29T10:03:00.794Z,76
2023-03-29T10:06:25.940Z,77
2023-03-29T10:09:51.103Z,77
2023-03-29T10:13:16.324Z,77
2023-03-29T10:16:41.542Z,76
2023-03-29T10:20:07.547Z,75
2023-03-29T10:23:32.068Z,76
2023-03-29T10:26:57.321Z,75
2023-03-29T10:30:22.747Z,75
2023-03-29T10:33:47.894Z,74
2023-03-29T10:37:13.112Z,74
2023-03-29T10:40:38.371Z,73
2023-03-29T10:44:03.564Z,72
2023-03-29T10:47:28.830Z,71
2023-03-29T10:50:53.988Z,72
2023-03-29T10:54:19.209Z,72
2023-03-29T10:57:44.451Z,71
2023-03-29T11:01:09.721Z,69
2023-03-29T11:04:34.950Z,72
2023-03-29T11:08:00.144Z,72
2023-03-29T11:11:25.342Z,72
2023-03-29T11:14:50.543Z,72
2023-03-29T11:18:15.775Z,72
2023-03-29T11:21:41.015Z,72
2023-03-29T11:25:06.223Z,72
2023-03-29T11:28:31.494Z,72
2023-03-29T11:31:56.810Z,74
2023-03-29T11:35:21.922Z,74
2023-03-29T11:38:47.204Z,73
2023-03-29T11:42:12.412Z,74
2023-03-29T11:45:37.698Z,73
2023-03-29T11:49:02.927Z,74
2023-03-29T11:52:28.175Z,73
2023-03-29T11:55:53.425Z,73
2023-03-29T11:59:18.699Z,73
2023-03-29T12:02:44.022Z,74
2023-03-29T12:06:09.203Z,71
2023-03-29T12:09:34.447Z,72
2023-03-29T12:12:59.731Z,72
2023-03-29T12:16:24.944Z,71
2023-03-29T12:19:50.142Z,72
2023-03-29T12:23:15.350Z,73
2023-03-29T12:26:40.616Z,74
2023-03-29T12:30:05.793Z,73
2023-03-29T12:33:30.989Z,73
2023-03-29T12:36:56.208Z,73
2023-03-29T12:40:21.406Z,73
2023-03-29T12:43:46.630Z,72
2023-03-29T12:47:11.881Z,72
2023-03-29T12:50:37.096Z,72
2023-03-29T12:54:02.314Z,71
2023-03-29T12:57:27.601Z,71
2023-03-29T13:00:52.850Z,71
2023-03-29T13:04:18.320Z,72
2023-03-29T13:07:43.509Z,71
2023-03-29T13:11:08.694Z,72
2023-03-29T13:14:33.957Z,72
2023-03-29T13:17:59.224Z,70
2023-03-29T13:21:24.494Z,71
2023-03-29T13:24:49.716Z,71
2023-03-29T13:28:15.199Z,71
2023-03-29T13:31:40.518Z,70
2023-03-29T13:35:05.740Z,70
2023-03-29T13:38:31.060Z,70
2023-03-29T13:41:56.298Z,71
2023-03-29T13:45:21.507Z,70
2023-03-29T13:48:46.777Z,70
2023-03-29T13:52:12.041Z,69
2023-03-29T13:55:38.460Z,71
2023-03-29T13:59:02.541Z,71
2023-03-29T14:02:27.840Z,71
2023-03-29T14:05:53.083Z,71
2023-03-29T14:09:19.224Z,71
2023-03-29T14:12:44.668Z,71
2023-03-29T14:16:09.919Z,73
2023-03-29T14:19:35.171Z,71
2023-03-29T14:23:00.465Z,71
2023-03-29T14:26:25.731Z,72
2023-03-29T14:29:50.946Z,72
2023-03-29T14:33:16.210Z,71
2023-03-29T14:36:41.610Z,72
2023-03-29T14:40:07.017Z,71
2023-03-29T14:43:32.301Z,71
2023-03-29T14:46:58.000Z,72
2023-03-29T14:50:23.253Z,73
2023-03-29T14:53:48.515Z,72
2023-03-29T14:57:13.843Z,73
2023-03-29T15:00:39.062Z,73
2023-03-29T15:04:04.448Z,73
2023-03-29T15:40:36.810Z,75
2023-03-29T15:44:02.032Z,74
2023-03-29T15:47:27.335Z,75
2023-03-29T15:50:52.577Z,74
2023-03-29T15:54:17.865Z,74
2023-03-29T15:57:43.246Z,74
2023-03-29T16:01:08.713Z,74
2023-03-29T16:04:34.092Z,74
2023-03-29T16:07:59.346Z,74
2023-03-29T16:11:24.633Z,73
2023-03-29T16:14:49.909Z,74
2023-03-29T16:18:15.095Z,75
2023-03-29T16:21:40.356Z,74
2023-03-29T16:25:05.581Z,74
2023-03-29T16:28:30.832Z,75
2023-03-29T16:31:56.249Z,75
2023-03-29T16:35:21.451Z,75
2023-03-29T16:38:46.698Z,75
2023-03-29T16:42:11.944Z,75
2023-03-29T16:45:37.195Z,75
2023-03-29T16:49:02.451Z,75
2023-03-29T16:52:27.695Z,76
2023-03-29T16:55:52.900Z,76
2023-03-29T16:59:18.191Z,76
2023-03-29T17:02:43.550Z,76
2023-03-29T17:06:08.871Z,76
2023-03-29T17:09:33.992Z,76
2023-03-29T17:12:59.215Z,76
2023-03-29T17:16:24.495Z,76
2023-03-29T17:19:49.723Z,76
2023-03-29T17:23:15.020Z,76
2023-03-29T17:26:40.410Z,77
2023-03-29T17:30:05.711Z,77
2023-03-29T17:33:31.062Z,77
2023-03-29T17:36:56.367Z,76
2023-03-29T17:40:21.696Z,77
2023-03-29T17:43:47.026Z,77
2023-03-29T17:47:12.338Z,77
2023-03-29T17:50:37.638Z,78
2023-03-29T17:54:02.914Z,77
2023-03-29T17:57:28.309Z,77
2023-03-29T18:00:53.572Z,77
2023-03-29T18:04:18.779Z,78
2023-03-29T18:07:44.353Z,78
2023-03-29T18:11:09.646Z,78
2023-03-29T18:14:34.911Z,79
2023-03-29T18:18:00.236Z,78
2023-03-29T18:21:25.458Z,78
2023-03-29T18:24:50.736Z,78
2023-03-29T18:28:15.987Z,79
2023-03-29T18:31:41.311Z,79
2023-03-29T18:35:06.524Z,79
2023-03-29T18:38:31.796Z,80
2023-03-29T18:41:57.107Z,80
2023-03-29T18:45:22.400Z,80
2023-03-29T18:48:47.655Z,80
2023-03-29T18:52:12.926Z,80
2023-03-29T18:55:38.180Z,80
2023-03-29T18:59:03.416Z,80
2023-03-29T19:02:28.725Z,80
2023-03-29T19:05:53.988Z,80
2023-03-29T19:09:19.258Z,80
2023-03-29T19:12:44.537Z,80
2023-03-29T19:16:09.813Z,80
2023-03-29T19:19:35.098Z,81
2023-03-29T19:23:00.421Z,81
2023-03-29T19:26:25.661Z,81
2023-03-29T19:29:50.946Z,81
2023-03-29T19:33:16.818Z,81
2023-03-29T19:36:42.065Z,81
2023-03-29T19:40:07.365Z,81
2023-03-29T19:43:32.630Z,81
2023-03-29T19:46:57.951Z,81
2023-03-29T19:50:23.210Z,81
2023-03-29T19:53:48.476Z,81
2023-03-29T19:57:13.801Z,81
2023-03-29T20:00:39.080Z,81
2023-03-29T20:04:04.290Z,81
2023-03-29T20:07:29.514Z,82
2023-03-29T20:10:54.750Z,82
2023-03-29T20:14:20.060Z,82
2023-03-29T20:17:45.323Z,82
2023-03-29T20:21:10.534Z,81
2023-03-29T20:24:35.786Z,81
2023-03-29T20:28:01.067Z,81
2023-03-29T20:31:26.418Z,81
2023-03-29T20:34:51.638Z,81
2023-03-29T20:38:16.972Z,81
2023-03-29T20:41:42.259Z,81
2023-03-29T20:45:07.515Z,81
2023-03-29T20:48:32.810Z,81
2023-03-29T20:51:58.044Z,80
2023-03-29T20:55:23.349Z,80
2023-03-29T20:58:48.587Z,80
2023-03-29T21:02:13.907Z,82
2023-03-29T21:05:39.228Z,83
2023-03-29T21:09:04.412Z,83
2023-03-29T21:12:29.681Z,83
2023-03-29T21:15:54.948Z,83
2023-03-29T21:19:20.137Z,83
2023-03-29T21:22:45.424Z,82
2023-03-29T21:26:10.629Z,83
2023-03-29T21:29:35.931Z,83
2023-03-29T21:33:01.185Z,83
2023-03-29T21:36:26.454Z,83
2023-03-29T21:39:51.760Z,83
2023-03-29T21:43:17.000Z,84
2023-03-29T21:46:42.295Z,84
2023-03-29T21:50:07.482Z,84
2023-03-29T21:53:32.709Z,84
2023-03-29T21:56:57.988Z,84
2023-03-29T22:00:23.155Z,84
2023-03-29T22:03:48.395Z,84
2023-03-29T22:07:13.636Z,84
2023-03-29T22:10:38.850Z,84
2023-03-29T22:14:04.134Z,84
2023-03-29T22:17:29.424Z,84
2023-03-29T22:20:54.600Z,84
2023-03-29T22:24:19.824Z,83
2023-03-29T22:27:45.076Z,83
2023-03-29T22:31:10.346Z,84
2023-03-29T22:34:35.647Z,84
2023-03-29T22:38:00.880Z,84
2023-03-29T22:41:26.123Z,85
2023-03-29T22:44:51.302Z,86
2023-03-29T22:48:16.611Z,86
2023-03-29T22:51:41.835Z,86
2023-03-29T22:55:07.061Z,86
2023-03-29T22:58:32.304Z,86
2023-03-29T23:01:57.672Z,86
2023-03-29T23:05:22.803Z,86
2023-03-29T23:08:47.989Z,86
2023-03-29T23:12:13.257Z,85
2023-03-29T23:15:38.526Z,85
2023-03-29T23:19:03.758Z,85
2023-03-29T23:22:29.012Z,86
2023-03-29T23:25:54.204Z,85
2023-03-29T23:29:19.427Z,85
2023-03-29T23:32:44.726Z,85
2023-03-29T23:36:09.945Z,85
2023-03-29T23:39:35.190Z,85
2023-03-29T23:43:00.376Z,85
2023-03-29T23:46:25.619Z,86
2023-03-29T23:49:50.870Z,86
2023-03-29T23:53:16.093Z,85
2023-03-29T23:56:41.384Z,85
